The Hangar Logo

METARs in Plain English
Latest METAR information for EGVN - BRIZE NORTON

EGVN 240050Z 06009KT CAVOK 09/05 Q1011 NOSIG

In plain english is....

This is a METAR report for EGVN - BRIZE NORTON .
The report was made 44 minutes ago, at 00:50 UTC.
The wind was blowing at a speed of 9 knots (10.4 miles per hour, 4.6 metres per second) from the East/Northeast (060°).
The visibility was greater than 6.2 miles (greater than 10 kilometres).
There were no clouds below 5,000 feet (1,524 metres).
The temperature was 9°C (48°F), a dew point of 5°C (41°F) and a relative humidity of 76.0%.
The altimeter setting (airfield QNH) was 1,011 hPa (29.85 inHg).
Other remarks NOSIG.

UK Mainland


Channel Islands



Tel: 07092 887559 - Fax: 07092 183262

Content copyright © 1999-2016 All rights reserved.
Please send your questions, comments, or bug reports to the Webmaster.